CA-0524 weather

Varys field
Owen Sound, Ontario, Canada

Public forecast

Using degrees Celsius for public forecast. Weather courtesy of forecast.io.

METAR (pilot weather report)

Closest report is Wiarton Airport, 17.4 nm (32.2 km) WNW. Retrieved 2019/05/19 11:00 UTC (59 minutes ago):

CYVV 191100Z 03004KT 010V090 15SM SCT080 BKN250 07/05 A2984 RMK AC4CI3 SLP112

TAF (pilot weather forecast)

Forecast is more than 12 hours old.

Closest forecast is Wiarton Airport, 17.4 nm (32.2 km) WNW. Retrieved 2019/05/18 20:00 UTC (16 hours ago):

TAF CYVV 181938Z 1820/1823 09010KT P6SM OVC060 TEMPO 1820/1823 P6SM -SHRA RMK NXT FCST WILL BE ISSUED AT 191045Z